^^
Station Historical Data
Daily Summary for January 15, 2020 Units:  Both    English   Metric
« Previous Day
Next Day »
Daily Weekly Monthly Yearly Custom
  High: Low: Average:
Temperature: -7.2 °F /  -21.8 °C -16.9 °F /  -27.2 °C -12 °F /  -24.4 °C
Dew Point: -12 °F /  -24.4 °C -22.2 °F /  -30.1 °C -17.7 °F /  -27.6 °C
Humidity: 80% 67% 75%
Wind Speed: 20mph /  32.2km/h - 8mph /  12.9km/h
Wind Gust: 22mph /  35.4km/h - -
Wind- - WNW
Pressure: 30.81 in /  1043.2 hPa 30.32 in /  1026.6 hPa -
Precipitation: 0 in /  0 mm    
Historical Graphs
 
 
Tabular Data for January 15, 2020
Time Temperature Dew Point Pressure Wind Wind Speed Wind Gust Humidity Rainfall Rate (Hourly) solar Conditions
00:00 -7.2 °F /  -21.8 °C -12.5 °F /  -24.7 °C 30.34in /  1027.3hPa NNW 10mph /  16.1km/h 14mph /  22.5km/h 77% 0in /  0mm 0.00 W/m2
00:05 -7.3 °F /  -21.8 °C -12.6 °F /  -24.8 °C 30.34in /  1027.3hPa NW 11mph /  17.7km/h 14mph /  22.5km/h 77% 0in /  0mm 0.00 W/m2
00:10 -7.4 °F /  -21.9 °C -12.7 °F /  -24.8 °C 30.35in /  1027.7hPa NW 11mph /  17.7km/h 14mph /  22.5km/h 77% 0in /  0mm 0.00 W/m2
00:15 -7.5 °F /  -21.9 °C -12.8 °F /  -24.9 °C 30.34in /  1027.3hPa NW 13mph /  20.9km/h 14mph /  22.5km/h 77% 0in /  0mm 0.00 W/m2
00:20 -7.5 °F /  -21.9 °C -12.5 °F /  -24.7 °C 30.34in /  1027.3hPa NW 10mph /  16.1km/h 14mph /  22.5km/h 78% 0in /  0mm 0.00 W/m2
00:25 -7.5 °F /  -21.9 °C -12.5 °F /  -24.7 °C 30.33in /  1027hPa NNW 10mph /  16.1km/h 15mph /  24.1km/h 78% 0in /  0mm 0.00 W/m2
00:30 -7.4 °F /  -21.9 °C -12.4 °F /  -24.7 °C 30.34in /  1027.3hPa NNW 6mph /  9.7km/h 15mph /  24.1km/h 78% 0in /  0mm 0.00 W/m2
00:35 -7.4 °F /  -21.9 °C -12.4 °F /  -24.7 °C 30.33in /  1027hPa NW 11mph /  17.7km/h 16mph /  25.7km/h 78% 0in /  0mm 0.00 W/m2
00:40 -7.4 °F /  -21.9 °C -12.4 °F /  -24.7 °C 30.34in /  1027.3hPa NW 11mph /  17.7km/h 16mph /  25.7km/h 78% 0in /  0mm 0.00 W/m2
00:45 -7.5 °F /  -21.9 °C -12.8 °F /  -24.9 °C 30.34in /  1027.3hPa NNW 10mph /  16.1km/h 16mph /  25.7km/h 77% 0in /  0mm 0.00 W/m2
00:50 -7.4 °F /  -21.9 °C -12.4 °F /  -24.7 °C 30.34in /  1027.3hPa NNW 11mph /  17.7km/h 16mph /  25.7km/h 78% 0in /  0mm 0.00 W/m2
00:55 -7.4 °F /  -21.9 °C -12.2 °F /  -24.6 °C 30.35in /  1027.7hPa NNW 11mph /  17.7km/h 15mph /  24.1km/h 79% 0in /  0mm 0.00 W/m2
01:00 -7.3 °F /  -21.8 °C -12.1 °F /  -24.5 °C 30.35in /  1027.7hPa NW 6mph /  9.7km/h 15mph /  24.1km/h 79% 0in /  0mm 0.00 W/m2
01:05 -7.4 °F /  -21.9 °C -12.2 °F /  -24.6 °C 30.35in /  1027.7hPa NNW 10mph /  16.1km/h 13mph /  20.9km/h 79% 0in /  0mm 0.00 W/m2
01:10 -7.5 °F /  -21.9 °C -12.3 °F /  -24.6 °C 30.35in /  1027.7hPa NNW 10mph /  16.1km/h 13mph /  20.9km/h 79% 0in /  0mm 0.00 W/m2
01:15 -7.5 °F /  -21.9 °C -12 °F /  -24.4 °C 30.34in /  1027.3hPa NNW 13mph /  20.9km/h 14mph /  22.5km/h 80% 0in /  0mm 0.00 W/m2
01:20 -7.6 °F /  -22 °C -12.4 °F /  -24.7 °C 30.34in /  1027.3hPa NW 11mph /  17.7km/h 15mph /  24.1km/h 79% 0in /  0mm 0.00 W/m2
01:25 -7.7 °F /  -22.1 °C -12.5 °F /  -24.7 °C 30.34in /  1027.3hPa NW 9mph /  14.5km/h 15mph /  24.1km/h 79% 0in /  0mm 0.00 W/m2
01:30 -7.8 °F /  -22.1 °C -12.3 °F /  -24.6 °C 30.34in /  1027.3hPa NW 10mph /  16.1km/h 15mph /  24.1km/h 80% 0in /  0mm 0.00 W/m2
01:35 -7.8 °F /  -22.1 °C -12.3 °F /  -24.6 °C 30.33in /  1027hPa NNW 12mph /  19.3km/h 15mph /  24.1km/h 80% 0in /  0mm 0.00 W/m2
01:40 -7.9 °F /  -22.2 °C -12.4 °F /  -24.7 °C 30.32in /  1026.6hPa North 6mph /  9.7km/h 15mph /  24.1km/h 80% 0in /  0mm 0.00 W/m2
01:45 -7.8 °F /  -22.1 °C -12.3 °F /  -24.6 °C 30.34in /  1027.3hPa WNW 7mph /  11.3km/h 15mph /  24.1km/h 80% 0in /  0mm 0.00 W/m2
01:50 -7.9 °F /  -22.2 °C -12.4 °F /  -24.7 °C 30.35in /  1027.7hPa NW 9mph /  14.5km/h 15mph /  24.1km/h 80% 0in /  0mm 0.00 W/m2
01:55 -7.9 °F /  -22.2 °C -12.4 °F /  -24.7 °C 30.35in /  1027.7hPa NNW 6mph /  9.7km/h 15mph /  24.1km/h 80% 0in /  0mm 0.00 W/m2
02:00 -7.9 °F /  -22.2 °C -12.4 °F /  -24.7 °C 30.34in /  1027.3hPa NNW 5mph /  8km/h 15mph /  24.1km/h 80% 0in /  0mm 0.00 W/m2
02:05 -7.8 °F /  -22.1 °C -12.3 °F /  -24.6 °C 30.32in /  1026.6hPa NNW 16mph /  25.7km/h 18mph /  29km/h 80% 0in /  0mm 0.00 W/m2
02:10 -7.7 °F /  -22.1 °C -12.5 °F /  -24.7 °C 30.34in /  1027.3hPa NNW 6mph /  9.7km/h 18mph /  29km/h 79% 0in /  0mm 0.00 W/m2
02:15 -7.8 °F /  -22.1 °C -12.6 °F /  -24.8 °C 30.35in /  1027.7hPa NW 10mph /  16.1km/h 18mph /  29km/h 79% 0in /  0mm 0.00 W/m2
02:20 -7.7 °F /  -22.1 °C -12.5 °F /  -24.7 °C 30.35in /  1027.7hPa NW 14mph /  22.5km/h 16mph /  25.7km/h 79% 0in /  0mm 0.00 W/m2
02:25 -7.7 °F /  -22.1 °C -12.5 °F /  -24.7 °C 30.35in /  1027.7hPa NW 12mph /  19.3km/h 16mph /  25.7km/h 79% 0in /  0mm 0.00 W/m2
02:45 -7.5 °F /  -21.9 °C -12.5 °F /  -24.7 °C 30.36in /  1028hPa NNW 12mph /  19.3km/h 17mph /  27.4km/h 78% 0in /  0mm 0.00 W/m2
02:50 -7.5 °F /  -21.9 °C -12.5 °F /  -24.7 °C 30.37in /  1028.3hPa NNW 12mph /  19.3km/h 17mph /  27.4km/h 78% 0in /  0mm 0.00 W/m2
02:55 -7.4 °F /  -21.9 °C -12.4 °F /  -24.7 °C 30.38in /  1028.7hPa NNW 10mph /  16.1km/h 15mph /  24.1km/h 78% 0in /  0mm 0.00 W/m2
03:00 -7.4 °F /  -21.9 °C -12.4 °F /  -24.7 °C 30.37in /  1028.3hPa NNW 9mph /  14.5km/h 15mph /  24.1km/h 78% 0in /  0mm 0.00 W/m2
03:05 -7.4 °F /  -21.9 °C -12.4 °F /  -24.7 °C 30.37in /  1028.3hPa NNW 12mph /  19.3km/h 17mph /  27.4km/h 78% 0in /  0mm 0.00 W/m2
03:10 -7.4 °F /  -21.9 °C -12.4 °F /  -24.7 °C 30.37in /  1028.3hPa NNW 10mph /  16.1km/h 17mph /  27.4km/h 78% 0in /  0mm 0.00 W/m2
03:15 -7.4 °F /  -21.9 °C -12.4 °F /  -24.7 °C 30.36in /  1028hPa NW 12mph /  19.3km/h 17mph /  27.4km/h 78% 0in /  0mm 0.00 W/m2
03:20 -7.4 °F /  -21.9 °C -12.4 °F /  -24.7 °C 30.35in /  1027.7hPa North 15mph /  24.1km/h 17mph /  27.4km/h 78% 0in /  0mm 0.00 W/m2
03:25 -7.3 °F /  -21.8 °C -12.3 °F /  -24.6 °C 30.36in /  1028hPa NNW 15mph /  24.1km/h 18mph /  29km/h 78% 0in /  0mm 0.00 W/m2
03:30 -7.4 °F /  -21.9 °C -12.4 °F /  -24.7 °C 30.37in /  1028.3hPa NW 15mph /  24.1km/h 18mph /  29km/h 78% 0in /  0mm 0.00 W/m2
03:35 -7.5 °F /  -21.9 °C -12.5 °F /  -24.7 °C 30.37in /  1028.3hPa NNW 9mph /  14.5km/h 18mph /  29km/h 78% 0in /  0mm 0.00 W/m2
03:40 -7.6 °F /  -22 °C -12.6 °F /  -24.8 °C 30.37in /  1028.3hPa NNW 8mph /  12.9km/h 18mph /  29km/h 78% 0in /  0mm 0.00 W/m2
03:45 -7.7 °F /  -22.1 °C -13 °F /  -25 °C 30.37in /  1028.3hPa NNW 10mph /  16.1km/h 16mph /  25.7km/h 77% 0in /  0mm 0.00 W/m2
03:50 -7.8 °F /  -22.1 °C -13.1 °F /  -25.1 °C 30.37in /  1028.3hPa NW 8mph /  12.9km/h 16mph /  25.7km/h 77% 0in /  0mm 0.00 W/m2
03:55 -7.9 °F /  -22.2 °C -13.2 °F /  -25.1 °C 30.38in /  1028.7hPa NNW 12mph /  19.3km/h 16mph /  25.7km/h 77% 0in /  0mm 0.00 W/m2
04:00 -8.1 °F /  -22.3 °C -13.4 °F /  -25.2 °C 30.37in /  1028.3hPa NW 11mph /  17.7km/h 16mph /  25.7km/h 77% 0in /  0mm 0.00 W/m2
04:05 -8.2 °F /  -22.3 °C -13.5 °F /  -25.3 °C 30.38in /  1028.7hPa NW 11mph /  17.7km/h 15mph /  24.1km/h 77% 0in /  0mm 0.00 W/m2
04:10 -8.4 °F /  -22.4 °C -13.7 °F /  -25.4 °C 30.38in /  1028.7hPa NW 10mph /  16.1km/h 15mph /  24.1km/h 77% 0in /  0mm 0.00 W/m2
04:15 -8.6 °F /  -22.6 °C -13.9 °F /  -25.5 °C 30.38in /  1028.7hPa NNW 12mph /  19.3km/h 13mph /  20.9km/h 77% 0in /  0mm 0.00 W/m2
04:20 -8.9 °F /  -22.7 °C -14.2 °F /  -25.7 °C 30.38in /  1028.7hPa NW 5mph /  8km/h 13mph /  20.9km/h 77% 0in /  0mm 0.00 W/m2
04:25 -9.1 °F /  -22.8 °C -14.4 °F /  -25.8 °C 30.39in /  1029hPa WNW 11mph /  17.7km/h 12mph /  19.3km/h 77% 0in /  0mm 0.00 W/m2
04:30 -9.2 °F /  -22.9 °C -14.5 °F /  -25.8 °C 30.39in /  1029hPa NW 8mph /  12.9km/h 12mph /  19.3km/h 77% 0in /  0mm 0.00 W/m2
04:35 -9.2 °F /  -22.9 °C -14.2 °F /  -25.7 °C 30.41in /  1029.7hPa WNW 7mph /  11.3km/h 12mph /  19.3km/h 78% 0in /  0mm 0.00 W/m2
04:40 -9.3 °F /  -22.9 °C -14.3 °F /  -25.7 °C 30.41in /  1029.7hPa West 9mph /  14.5km/h 12mph /  19.3km/h 78% 0in /  0mm 0.00 W/m2
04:45 -9.5 °F /  -23.1 °C -14.5 °F /  -25.8 °C 30.41in /  1029.7hPa WNW 9mph /  14.5km/h 11mph /  17.7km/h 78% 0in /  0mm 0.00 W/m2
04:50 -9.6 °F /  -23.1 °C -14.6 °F /  -25.9 °C 30.41in /  1029.7hPa NW 7mph /  11.3km/h 12mph /  19.3km/h 78% 0in /  0mm 0.00 W/m2
04:55 -9.6 °F /  -23.1 °C -14.6 °F /  -25.9 °C 30.40in /  1029.3hPa NNW 11mph /  17.7km/h 12mph /  19.3km/h 78% 0in /  0mm 0.00 W/m2
05:00 -9.8 °F /  -23.2 °C -14.8 °F /  -26 °C 30.39in /  1029hPa NNW 9mph /  14.5km/h 12mph /  19.3km/h 78% 0in /  0mm 0.00 W/m2
05:05 -9.9 °F /  -23.3 °C -14.6 °F /  -25.9 °C 30.40in /  1029.3hPa WNW 4mph /  6.4km/h 12mph /  19.3km/h 79% 0in /  0mm 0.00 W/m2
05:10 -10 °F /  -23.3 °C -15 °F /  -26.1 °C 30.40in /  1029.3hPa NW 8mph /  12.9km/h 11mph /  17.7km/h 78% 0in /  0mm 0.00 W/m2
05:15 -10.3 °F /  -23.5 °C -15.3 °F /  -26.3 °C 30.40in /  1029.3hPa NW 9mph /  14.5km/h 11mph /  17.7km/h 78% 0in /  0mm 0.00 W/m2
05:20 -10.2 °F /  -23.4 °C -14.9 °F /  -26.1 °C 30.41in /  1029.7hPa NW 7mph /  11.3km/h 11mph /  17.7km/h 79% 0in /  0mm 0.00 W/m2
05:25 -10.3 °F /  -23.5 °C -15.3 °F /  -26.3 °C 30.41in /  1029.7hPa NW 4mph /  6.4km/h 9mph /  14.5km/h 78% 0in /  0mm 0.00 W/m2
05:30 -10.6 °F /  -23.7 °C -15.6 °F /  -26.4 °C 30.41in /  1029.7hPa WNW 4mph /  6.4km/h 11mph /  17.7km/h 78% 0in /  0mm 0.00 W/m2
05:35 -10.8 °F /  -23.8 °C -15.8 °F /  -26.6 °C 30.41in /  1029.7hPa WNW 7mph /  11.3km/h 11mph /  17.7km/h 78% 0in /  0mm 0.00 W/m2
05:40 -11.1 °F /  -23.9 °C -15.8 °F /  -26.6 °C 30.42in /  1030hPa WNW 7mph /  11.3km/h 8mph /  12.9km/h 79% 0in /  0mm 0.00 W/m2
05:45 -11.3 °F /  -24.1 °C -16 °F /  -26.7 °C 30.42in /  1030hPa West 3mph /  4.8km/h 8mph /  12.9km/h 79% 0in /  0mm 0.00 W/m2
05:50 -11.9 °F /  -24.4 °C -16.8 °F /  -27.1 °C 30.43in /  1030.4hPa West 3mph /  4.8km/h 8mph /  12.9km/h 78% 0in /  0mm 0.00 W/m2
05:55 -12.4 °F /  -24.7 °C -17.3 °F /  -27.4 °C 30.43in /  1030.4hPa West 3mph /  4.8km/h 8mph /  12.9km/h 78% 0in /  0mm 0.00 W/m2
06:00 -12.4 °F /  -24.7 °C -17.1 °F /  -27.3 °C 30.43in /  1030.4hPa WNW 5mph /  8km/h 7mph /  11.3km/h 79% 0in /  0mm 0.00 W/m2
06:05 -11.8 °F /  -24.3 °C -16.2 °F /  -26.8 °C 30.43in /  1030.4hPa WNW 4mph /  6.4km/h 8mph /  12.9km/h 80% 0in /  0mm 0.00 W/m2
06:10 -11.7 °F /  -24.3 °C -16.4 °F /  -26.9 °C 30.43in /  1030.4hPa WNW 4mph /  6.4km/h 8mph /  12.9km/h 79% 0in /  0mm 0.00 W/m2
06:15 -11.7 °F /  -24.3 °C -16.4 °F /  -26.9 °C 30.43in /  1030.4hPa NW 3mph /  4.8km/h 8mph /  12.9km/h 79% 0in /  0mm 0.00 W/m2
06:20 -11.6 °F /  -24.2 °C -16.3 °F /  -26.8 °C 30.43in /  1030.4hPa WNW 4mph /  6.4km/h 8mph /  12.9km/h 79% 0in /  0mm 0.00 W/m2
06:25 -12 °F /  -24.4 °C -16.7 °F /  -27.1 °C 30.43in /  1030.4hPa WNW 4mph /  6.4km/h 7mph /  11.3km/h 79% 0in /  0mm 0.00 W/m2
06:30 -12.4 °F /  -24.7 °C -17.1 °F /  -27.3 °C 30.43in /  1030.4hPa WNW 3mph /  4.8km/h 7mph /  11.3km/h 79% 0in /  0mm 0.00 W/m2
06:35 -12.7 °F /  -24.8 °C -17.4 °F /  -27.4 °C 30.43in /  1030.4hPa WNW 5mph /  8km/h 6mph /  9.7km/h 79% 0in /  0mm 0.00 W/m2
06:40 -12.8 °F /  -24.9 °C -17.5 °F /  -27.5 °C 30.44in /  1030.7hPa WNW 4mph /  6.4km/h 8mph /  12.9km/h 79% 0in /  0mm 0.00 W/m2
06:45 -12.8 °F /  -24.9 °C -17.5 °F /  -27.5 °C 30.43in /  1030.4hPa WNW 4mph /  6.4km/h 8mph /  12.9km/h 79% 0in /  0mm 0.00 W/m2
06:50 -12.5 °F /  -24.7 °C -16.9 °F /  -27.2 °C 30.43in /  1030.4hPa NW 5mph /  8km/h 9mph /  14.5km/h 80% 0in /  0mm 0.00 W/m2
06:55 -12.4 °F /  -24.7 °C -17.1 °F /  -27.3 °C 30.43in /  1030.4hPa NW 2mph /  3.2km/h 9mph /  14.5km/h 79% 0in /  0mm 0.00 W/m2
07:00 -12.6 °F /  -24.8 °C -17.3 °F /  -27.4 °C 30.44in /  1030.7hPa NW 4mph /  6.4km/h 9mph /  14.5km/h 79% 0in /  0mm 0.00 W/m2
07:05 -12.7 °F /  -24.8 °C -17.4 °F /  -27.4 °C 30.44in /  1030.7hPa NW 2mph /  3.2km/h 9mph /  14.5km/h 79% 0in /  0mm 0.00 W/m2
07:10 -12.6 °F /  -24.8 °C -17 °F /  -27.2 °C 30.44in /  1030.7hPa NW 4mph /  6.4km/h 6mph /  9.7km/h 80% 0in /  0mm 0.00 W/m2
07:15 -12.7 °F /  -24.8 °C -17.1 °F /  -27.3 °C 30.44in /  1030.7hPa WNW 3mph /  4.8km/h 6mph /  9.7km/h 80% 0in /  0mm 0.00 W/m2
07:20 -13 °F /  -25 °C -17.7 °F /  -27.6 °C 30.45in /  1031hPa West 3mph /  4.8km/h 6mph /  9.7km/h 79% 0in /  0mm 0.00 W/m2
07:25 -13.4 °F /  -25.2 °C -18 °F /  -27.8 °C 30.45in /  1031hPa WNW 3mph /  4.8km/h 6mph /  9.7km/h 79% 0in /  0mm 0.00 W/m2
07:30 -13.8 °F /  -25.4 °C -18.7 °F /  -28.2 °C 30.45in /  1031hPa West 4mph /  6.4km/h 6mph /  9.7km/h 78% 0in /  0mm 0.00 W/m2
07:35 -14.4 °F /  -25.8 °C -19.3 °F /  -28.5 °C 30.46in /  1031.4hPa West 4mph /  6.4km/h 6mph /  9.7km/h 78% 0in /  0mm 0.00 W/m2
07:40 -14.7 °F /  -25.9 °C -19.3 °F /  -28.5 °C 30.46in /  1031.4hPa WNW 3mph /  4.8km/h 6mph /  9.7km/h 79% 0in /  0mm 0.00 W/m2
07:45 -14.6 °F /  -25.9 °C -19 °F /  -28.3 °C 30.46in /  1031.4hPa WNW 3mph /  4.8km/h 6mph /  9.7km/h 80% 0in /  0mm 0.00 W/m2
07:50 -14.3 °F /  -25.7 °C -18.7 °F /  -28.2 °C 30.45in /  1031hPa NW 3mph /  4.8km/h 6mph /  9.7km/h 80% 0in /  0mm 0.00 W/m2
07:55 -14.3 °F /  -25.7 °C -18.7 °F /  -28.2 °C 30.45in /  1031hPa NW 4mph /  6.4km/h 6mph /  9.7km/h 80% 0in /  0mm 0.00 W/m2
08:00 -14.4 °F /  -25.8 °C -18.8 °F /  -28.2 °C 30.46in /  1031.4hPa WNW 4mph /  6.4km/h 6mph /  9.7km/h 80% 0in /  0mm 0.00 W/m2
08:05 -14.3 °F /  -25.7 °C -18.7 °F /  -28.2 °C 30.47in /  1031.7hPa West 3mph /  4.8km/h 6mph /  9.7km/h 80% 0in /  0mm 0.00 W/m2
08:10 -14.6 °F /  -25.9 °C -19.2 °F /  -28.4 °C 30.48in /  1032.1hPa WNW 4mph /  6.4km/h 6mph /  9.7km/h 79% 0in /  0mm 0.00 W/m2
08:15 -15.1 °F /  -26.2 °C -20 °F /  -28.9 °C 30.48in /  1032.1hPa WNW 2mph /  3.2km/h 6mph /  9.7km/h 78% 0in /  0mm 0.00 W/m2
08:20 -15.4 °F /  -26.3 °C -20 °F /  -28.9 °C 30.48in /  1032.1hPa WNW 4mph /  6.4km/h 5mph /  8km/h 79% 0in /  0mm 5.00 W/m2
08:25 -15 °F /  -26.1 °C -19.4 °F /  -28.6 °C 30.49in /  1032.4hPa WNW 4mph /  6.4km/h 7mph /  11.3km/h 80% 0in /  0mm 7.00 W/m2
08:30 -14.3 °F /  -25.7 °C -18.7 °F /  -28.2 °C 30.48in /  1032.1hPa NW 4mph /  6.4km/h 8mph /  12.9km/h 80% 0in /  0mm 9.00 W/m2
08:35 -14.3 °F /  -25.7 °C -18.9 °F /  -28.3 °C 30.48in /  1032.1hPa NW 5mph /  8km/h 8mph /  12.9km/h 79% 0in /  0mm 12.00 W/m2
08:40 -14.2 °F /  -25.7 °C -18.6 °F /  -28.1 °C 30.49in /  1032.4hPa NW 6mph /  9.7km/h 8mph /  12.9km/h 80% 0in /  0mm 16.00 W/m2
08:45 -14.4 °F /  -25.8 °C -19 °F /  -28.3 °C 30.49in /  1032.4hPa NNW 3mph /  4.8km/h 8mph /  12.9km/h 79% 0in /  0mm 18.00 W/m2
08:50 -14.6 °F /  -25.9 °C -19.2 °F /  -28.4 °C 30.50in /  1032.7hPa NW 4mph /  6.4km/h 8mph /  12.9km/h 79% 0in /  0mm 19.00 W/m2
08:55 -14.6 °F /  -25.9 °C -19.2 °F /  -28.4 °C 30.51in /  1033.1hPa WNW 5mph /  8km/h 8mph /  12.9km/h 79% 0in /  0mm 23.00 W/m2
09:00 -14.6 °F /  -25.9 °C -19.2 °F /  -28.4 °C 30.52in /  1033.4hPa WNW 5mph /  8km/h 7mph /  11.3km/h 79% 0in /  0mm 28.00 W/m2
09:05 -14.4 °F /  -25.8 °C -19 °F /  -28.3 °C 30.52in /  1033.4hPa WNW 6mph /  9.7km/h 8mph /  12.9km/h 79% 0in /  0mm 37.00 W/m2
09:10 -14.1 °F /  -25.6 °C -18.7 °F /  -28.2 °C 30.51in /  1033.1hPa NW 3mph /  4.8km/h 8mph /  12.9km/h 79% 0in /  0mm 42.00 W/m2
09:15 -14.2 °F /  -25.7 °C -18.8 °F /  -28.2 °C 30.52in /  1033.4hPa NW 4mph /  6.4km/h 8mph /  12.9km/h 79% 0in /  0mm 58.00 W/m2
09:20 -14.1 °F /  -25.6 °C -18.7 °F /  -28.2 °C 30.51in /  1033.1hPa NW 3mph /  4.8km/h 7mph /  11.3km/h 79% 0in /  0mm 62.00 W/m2
09:25 -14.1 °F /  -25.6 °C -18.7 °F /  -28.2 °C 30.53in /  1033.7hPa WNW 2mph /  3.2km/h 6mph /  9.7km/h 79% 0in /  0mm 76.00 W/m2
09:30 -14.1 °F /  -25.6 °C -19 °F /  -28.3 °C 30.53in /  1033.7hPa North 4mph /  6.4km/h 7mph /  11.3km/h 78% 0in /  0mm 83.00 W/m2
09:35 -13.4 °F /  -25.2 °C -18 °F /  -27.8 °C 30.53in /  1033.7hPa NW 8mph /  12.9km/h 10mph /  16.1km/h 79% 0in /  0mm 95.00 W/m2
09:40 -13 °F /  -25 °C -17.9 °F /  -27.7 °C 30.53in /  1033.7hPa NW 8mph /  12.9km/h 13mph /  20.9km/h 78% 0in /  0mm 111.00 W/m2
09:45 -12.8 °F /  -24.9 °C -18 °F /  -27.8 °C 30.53in /  1033.7hPa WNW 9mph /  14.5km/h 15mph /  24.1km/h 77% 0in /  0mm 130.00 W/m2
09:50 -12.7 °F /  -24.8 °C -17.9 °F /  -27.7 °C 30.53in /  1033.7hPa WNW 9mph /  14.5km/h 15mph /  24.1km/h 77% 0in /  0mm 153.00 W/m2
09:55 -12.6 °F /  -24.8 °C -18 °F /  -27.8 °C 30.54in /  1034.1hPa WNW 9mph /  14.5km/h 15mph /  24.1km/h 76% 0in /  0mm 181.00 W/m2
10:00 -12.4 °F /  -24.7 °C -17.8 °F /  -27.7 °C 30.54in /  1034.1hPa WNW 9mph /  14.5km/h 15mph /  24.1km/h 76% 0in /  0mm 213.00 W/m2
10:05 -12.2 °F /  -24.6 °C -17.6 °F /  -27.6 °C 30.54in /  1034.1hPa WNW 9mph /  14.5km/h 15mph /  24.1km/h 76% 0in /  0mm 230.00 W/m2
10:10 -12 °F /  -24.4 °C -17.4 °F /  -27.4 °C 30.54in /  1034.1hPa WNW 9mph /  14.5km/h 15mph /  24.1km/h 76% 0in /  0mm 232.00 W/m2
10:15 -11.9 °F /  -24.4 °C -17.3 °F /  -27.4 °C 30.55in /  1034.4hPa WNW 9mph /  14.5km/h 15mph /  24.1km/h 76% 0in /  0mm 241.00 W/m2
10:20 -11.9 °F /  -24.4 °C -17.6 °F /  -27.6 °C 30.55in /  1034.4hPa WNW 9mph /  14.5km/h 15mph /  24.1km/h 75% 0in /  0mm 258.00 W/m2
10:25 -11.9 °F /  -24.4 °C -17.6 °F /  -27.6 °C 30.55in /  1034.4hPa WNW 9mph /  14.5km/h 15mph /  24.1km/h 75% 0in /  0mm 251.00 W/m2
10:30 -12.1 °F /  -24.5 °C -17.8 °F /  -27.7 °C 30.55in /  1034.4hPa WNW 9mph /  14.5km/h 15mph /  24.1km/h 75% 0in /  0mm 216.00 W/m2
10:35 -12.1 °F /  -24.5 °C -17.8 °F /  -27.7 °C 30.55in /  1034.4hPa WNW 9mph /  14.5km/h 15mph /  24.1km/h 75% 0in /  0mm 241.00 W/m2
10:40 -12.2 °F /  -24.6 °C -17.9 °F /  -27.7 °C 30.56in /  1034.8hPa WNW 9mph /  14.5km/h 15mph /  24.1km/h 75% 0in /  0mm 269.00 W/m2
10:45 -12.5 °F /  -24.7 °C -18.2 °F /  -27.9 °C 30.56in /  1034.8hPa WNW 9mph /  14.5km/h 15mph /  24.1km/h 75% 0in /  0mm 193.00 W/m2
10:50 -12.8 °F /  -24.9 °C -18.5 °F /  -28.1 °C 30.55in /  1034.4hPa WNW 9mph /  14.5km/h 15mph /  24.1km/h 75% 0in /  0mm 225.00 W/m2
10:55 -12.9 °F /  -24.9 °C -18.8 °F /  -28.2 °C 30.55in /  1034.4hPa WNW 9mph /  14.5km/h 15mph /  24.1km/h 74% 0in /  0mm 279.00 W/m2
11:00 -13 °F /  -25 °C -18.9 °F /  -28.3 °C 30.56in /  1034.8hPa WNW 9mph /  14.5km/h 15mph /  24.1km/h 74% 0in /  0mm 229.00 W/m2
11:05 -12.9 °F /  -24.9 °C -18.8 °F /  -28.2 °C 30.56in /  1034.8hPa NW 15mph /  24.1km/h 19mph /  30.6km/h 74% 0in /  0mm 308.00 W/m2
11:10 -12.7 °F /  -24.8 °C -18.6 °F /  -28.1 °C 30.57in /  1035.1hPa NW 8mph /  12.9km/h 19mph /  30.6km/h 74% 0in /  0mm 322.00 W/m2
11:15 -12.5 °F /  -24.7 °C -18.4 °F /  -28 °C 30.57in /  1035.1hPa NW 12mph /  19.3km/h 19mph /  30.6km/h 74% 0in /  0mm 320.00 W/m2
11:20 -12.6 °F /  -24.8 °C -18.8 °F /  -28.2 °C 30.57in /  1035.1hPa NNW 12mph /  19.3km/h 19mph /  30.6km/h 73% 0in /  0mm 323.00 W/m2
11:25 -12.7 °F /  -24.8 °C -18.9 °F /  -28.3 °C 30.57in /  1035.1hPa NW 12mph /  19.3km/h 20mph /  32.2km/h 73% 0in /  0mm 330.00 W/m2
11:30 -12.7 °F /  -24.8 °C -18.6 °F /  -28.1 °C 30.57in /  1035.1hPa NW 12mph /  19.3km/h 20mph /  32.2km/h 74% 0in /  0mm 336.00 W/m2
11:35 -12.7 °F /  -24.8 °C -18.9 °F /  -28.3 °C 30.57in /  1035.1hPa NW 15mph /  24.1km/h 20mph /  32.2km/h 73% 0in /  0mm 343.00 W/m2
11:40 -12.8 °F /  -24.9 °C -19 °F /  -28.3 °C 30.57in /  1035.1hPa NW 17mph /  27.4km/h 22mph /  35.4km/h 73% 0in /  0mm 346.00 W/m2
11:45 -12.6 °F /  -24.8 °C -18.8 °F /  -28.2 °C 30.58in /  1035.4hPa NW 19mph /  30.6km/h 22mph /  35.4km/h 73% 0in /  0mm 353.00 W/m2
11:50 -12.5 °F /  -24.7 °C -18.7 °F /  -28.2 °C 30.58in /  1035.4hPa NW 11mph /  17.7km/h 22mph /  35.4km/h 73% 0in /  0mm 359.00 W/m2
11:55 -12.5 °F /  -24.7 °C -18.7 °F /  -28.2 °C 30.59in /  1035.8hPa WNW 20mph /  32.2km/h 22mph /  35.4km/h 73% 0in /  0mm 364.00 W/m2
12:00 -12.4 °F /  -24.7 °C -18.9 °F /  -28.3 °C 30.58in /  1035.4hPa NW 14mph /  22.5km/h 22mph /  35.4km/h 72% 0in /  0mm 366.00 W/m2
12:05 -12.4 °F /  -24.7 °C -19.1 °F /  -28.4 °C 30.59in /  1035.8hPa WNW 15mph /  24.1km/h 22mph /  35.4km/h 71% 0in /  0mm 371.00 W/m2
12:10 -12.2 °F /  -24.6 °C -19 °F /  -28.3 °C 30.59in /  1035.8hPa WNW 12mph /  19.3km/h 19mph /  30.6km/h 71% 0in /  0mm 376.00 W/m2
12:15 -12.1 °F /  -24.5 °C -18.9 °F /  -28.3 °C 30.59in /  1035.8hPa NW 10mph /  16.1km/h 19mph /  30.6km/h 71% 0in /  0mm 380.00 W/m2
12:20 -11.9 °F /  -24.4 °C -18.7 °F /  -28.2 °C 30.59in /  1035.8hPa WNW 12mph /  19.3km/h 18mph /  29km/h 71% 0in /  0mm 381.00 W/m2
12:25 -12.1 °F /  -24.5 °C -18.9 °F /  -28.3 °C 30.59in /  1035.8hPa WNW 10mph /  16.1km/h 18mph /  29km/h 71% 0in /  0mm 383.00 W/m2
12:30 -12 °F /  -24.4 °C -18.8 °F /  -28.2 °C 30.58in /  1035.4hPa NW 17mph /  27.4km/h 18mph /  29km/h 71% 0in /  0mm 387.00 W/m2
12:35 -12 °F /  -24.4 °C -18.8 °F /  -28.2 °C 30.59in /  1035.8hPa NW 12mph /  19.3km/h 18mph /  29km/h 71% 0in /  0mm 388.00 W/m2
12:40 -12.2 °F /  -24.6 °C -19 °F /  -28.3 °C 30.58in /  1035.4hPa WNW 16mph /  25.7km/h 18mph /  29km/h 71% 0in /  0mm 390.00 W/m2
12:45 -12.2 °F /  -24.6 °C -19 °F /  -28.3 °C 30.58in /  1035.4hPa NW 10mph /  16.1km/h 18mph /  29km/h 71% 0in /  0mm 392.00 W/m2
12:50 -12 °F /  -24.4 °C -18.8 °F /  -28.2 °C 30.59in /  1035.8hPa West 13mph /  20.9km/h 18mph /  29km/h 71% 0in /  0mm 392.00 W/m2
12:55 -11.9 °F /  -24.4 °C -18.7 °F /  -28.2 °C 30.59in /  1035.8hPa NW 11mph /  17.7km/h 22mph /  35.4km/h 71% 0in /  0mm 390.00 W/m2
13:00 -11.8 °F /  -24.3 °C -18.6 °F /  -28.1 °C 30.59in /  1035.8hPa WNW 16mph /  25.7km/h 22mph /  35.4km/h 71% 0in /  0mm 392.00 W/m2
13:05 -11.8 °F /  -24.3 °C -18.8 °F /  -28.2 °C 30.59in /  1035.8hPa WNW 12mph /  19.3km/h 20mph /  32.2km/h 70% 0in /  0mm 392.00 W/m2
13:10 -11.7 °F /  -24.3 °C -18.7 °F /  -28.2 °C 30.59in /  1035.8hPa WNW 14mph /  22.5km/h 20mph /  32.2km/h 70% 0in /  0mm 390.00 W/m2
13:15 -11.4 °F /  -24.1 °C -18.2 °F /  -27.9 °C 30.60in /  1036.1hPa WNW 13mph /  20.9km/h 19mph /  30.6km/h 71% 0in /  0mm 388.00 W/m2
13:20 -11.5 °F /  -24.2 °C -18.6 °F /  -28.1 °C 30.60in /  1036.1hPa West 11mph /  17.7km/h 19mph /  30.6km/h 70% 0in /  0mm 387.00 W/m2
13:25 -11.5 °F /  -24.2 °C -18.6 °F /  -28.1 °C 30.60in /  1036.1hPa NW 13mph /  20.9km/h 18mph /  29km/h 70% 0in /  0mm 387.00 W/m2
13:30 -11.1 °F /  -23.9 °C -18.2 °F /  -27.9 °C 30.60in /  1036.1hPa WNW 12mph /  19.3km/h 19mph /  30.6km/h 70% 0in /  0mm 385.00 W/m2
13:35 -10.9 °F /  -23.8 °C -17.7 °F /  -27.6 °C 30.60in /  1036.1hPa West 16mph /  25.7km/h 19mph /  30.6km/h 71% 0in /  0mm 381.00 W/m2
13:40 -11 °F /  -23.9 °C -18.4 °F /  -28 °C 30.60in /  1036.1hPa WNW 18mph /  29km/h 20mph /  32.2km/h 69% 0in /  0mm 378.00 W/m2
13:45 -11 °F /  -23.9 °C -18.4 °F /  -28 °C 30.60in /  1036.1hPa NW 10mph /  16.1km/h 20mph /  32.2km/h 69% 0in /  0mm 376.00 W/m2
13:50 -10.9 °F /  -23.8 °C -18 °F /  -27.8 °C 30.60in /  1036.1hPa WNW 14mph /  22.5km/h 20mph /  32.2km/h 70% 0in /  0mm 378.00 W/m2
13:55 -10.6 °F /  -23.7 °C -17.7 °F /  -27.6 °C 30.60in /  1036.1hPa WNW 17mph /  27.4km/h 21mph /  33.8km/h 70% 0in /  0mm 392.00 W/m2
14:00 -10.8 °F /  -23.8 °C -17.9 °F /  -27.7 °C 30.60in /  1036.1hPa WNW 16mph /  25.7km/h 22mph /  35.4km/h 70% 0in /  0mm 415.00 W/m2
14:05 -11.1 °F /  -23.9 °C -18.2 °F /  -27.9 °C 30.61in /  1036.5hPa WNW 18mph /  29km/h 22mph /  35.4km/h 70% 0in /  0mm 204.00 W/m2
14:10 -10.7 °F /  -23.7 °C -17.8 °F /  -27.7 °C 30.61in /  1036.5hPa WNW 18mph /  29km/h 22mph /  35.4km/h 70% 0in /  0mm 417.00 W/m2
14:15 -10.4 °F /  -23.6 °C -17.5 °F /  -27.5 °C 30.62in /  1036.8hPa NW 12mph /  19.3km/h 22mph /  35.4km/h 70% 0in /  0mm 364.00 W/m2
14:20 -10.3 °F /  -23.5 °C -17.4 °F /  -27.4 °C 30.62in /  1036.8hPa WNW 16mph /  25.7km/h 22mph /  35.4km/h 70% 0in /  0mm 346.00 W/m2
14:25 -10.4 °F /  -23.6 °C -17.8 °F /  -27.7 °C 30.62in /  1036.8hPa WNW 16mph /  25.7km/h 22mph /  35.4km/h 69% 0in /  0mm 338.00 W/m2
14:30 -10.5 °F /  -23.6 °C -17.9 °F /  -27.7 °C 30.62in /  1036.8hPa WNW 16mph /  25.7km/h 22mph /  35.4km/h 69% 0in /  0mm 329.00 W/m2
14:35 -10.4 °F /  -23.6 °C -17.8 °F /  -27.7 °C 30.62in /  1036.8hPa WNW 16mph /  25.7km/h 22mph /  35.4km/h 69% 0in /  0mm 322.00 W/m2
14:40 -10.3 °F /  -23.5 °C -18 °F /  -27.8 °C 30.62in /  1036.8hPa WNW 16mph /  25.7km/h 22mph /  35.4km/h 68% 0in /  0mm 315.00 W/m2
14:45 -10.4 °F /  -23.6 °C -18.1 °F /  -27.8 °C 30.62in /  1036.8hPa WNW 16mph /  25.7km/h 22mph /  35.4km/h 68% 0in /  0mm 315.00 W/m2
14:50 -10.4 °F /  -23.6 °C -18.1 °F /  -27.8 °C 30.62in /  1036.8hPa WNW 16mph /  25.7km/h 22mph /  35.4km/h 68% 0in /  0mm 250.00 W/m2
14:55 -10.4 °F /  -23.6 °C -18.3 °F /  -27.9 °C 30.63in /  1037.1hPa WNW 16mph /  25.7km/h 22mph /  35.4km/h 67% 0in /  0mm 302.00 W/m2
15:00 -10.3 °F /  -23.5 °C -18.3 °F /  -27.9 °C 30.64in /  1037.5hPa WNW 16mph /  25.7km/h 22mph /  35.4km/h 67% 0in /  0mm 295.00 W/m2
15:05 -10.3 °F /  -23.5 °C -18 °F /  -27.8 °C 30.64in /  1037.5hPa WNW 16mph /  25.7km/h 22mph /  35.4km/h 68% 0in /  0mm 285.00 W/m2
15:10 -10.1 °F /  -23.4 °C -17.5 °F /  -27.5 °C 30.64in /  1037.5hPa WNW 16mph /  25.7km/h 22mph /  35.4km/h 69% 0in /  0mm 322.00 W/m2
15:15 -9.7 °F /  -23.2 °C -17.1 °F /  -27.3 °C 30.64in /  1037.5hPa WNW 16mph /  25.7km/h 22mph /  35.4km/h 69% 0in /  0mm 209.00 W/m2
15:20 -9.9 °F /  -23.3 °C -17.6 °F /  -27.6 °C 30.65in /  1037.8hPa WNW 16mph /  25.7km/h 22mph /  35.4km/h 68% 0in /  0mm 237.00 W/m2
15:25 -9.9 °F /  -23.3 °C -17.6 °F /  -27.6 °C 30.65in /  1037.8hPa WNW 16mph /  25.7km/h 22mph /  35.4km/h 68% 0in /  0mm 221.00 W/m2
15:30 -10.1 °F /  -23.4 °C -18.1 °F /  -27.8 °C 30.66in /  1038.1hPa WNW 16mph /  25.7km/h 22mph /  35.4km/h 67% 0in /  0mm 209.00 W/m2
15:35 -9.9 °F /  -23.3 °C -17.6 °F /  -27.6 °C 30.66in /  1038.1hPa WNW 16mph /  25.7km/h 22mph /  35.4km/h 68% 0in /  0mm 193.00 W/m2
15:40 -10 °F /  -23.3 °C -17.7 °F /  -27.6 °C 30.66in /  1038.1hPa WNW 16mph /  25.7km/h 22mph /  35.4km/h 68% 0in /  0mm 181.00 W/m2
15:45 -10 °F /  -23.3 °C -17.7 °F /  -27.6 °C 30.66in /  1038.1hPa WNW 16mph /  25.7km/h 22mph /  35.4km/h 68% 0in /  0mm 167.00 W/m2
15:50 -10 °F /  -23.3 °C -17.7 °F /  -27.6 °C 30.67in /  1038.5hPa WNW 16mph /  25.7km/h 22mph /  35.4km/h 68% 0in /  0mm 153.00 W/m2
15:55 -10 °F /  -23.3 °C -17.7 °F /  -27.6 °C 30.67in /  1038.5hPa WNW 16mph /  25.7km/h 22mph /  35.4km/h 68% 0in /  0mm 142.00 W/m2
16:00 -10 °F /  -23.3 °C -17.4 °F /  -27.4 °C 30.67in /  1038.5hPa WNW 16mph /  25.7km/h 22mph /  35.4km/h 69% 0in /  0mm 127.00 W/m2
16:05 -10 °F /  -23.3 °C -17.1 °F /  -27.3 °C 30.67in /  1038.5hPa WNW 16mph /  25.7km/h 22mph /  35.4km/h 70% 0in /  0mm 114.00 W/m2
16:10 -10.1 °F /  -23.4 °C -17.2 °F /  -27.3 °C 30.68in /  1038.8hPa WNW 16mph /  25.7km/h 22mph /  35.4km/h 70% 0in /  0mm 107.00 W/m2
16:15 -10.2 °F /  -23.4 °C -17.3 °F /  -27.4 °C 30.68in /  1038.8hPa WNW 16mph /  25.7km/h 22mph /  35.4km/h 70% 0in /  0mm 91.00 W/m2
16:20 -10.2 °F /  -23.4 °C -17.3 °F /  -27.4 °C 30.68in /  1038.8hPa WNW 16mph /  25.7km/h 22mph /  35.4km/h 70% 0in /  0mm 86.00 W/m2
16:25 -10.3 °F /  -23.5 °C -17.4 °F /  -27.4 °C 30.68in /  1038.8hPa WNW 16mph /  25.7km/h 22mph /  35.4km/h 70% 0in /  0mm 81.00 W/m2
16:30 -10.3 °F /  -23.5 °C -17.1 °F /  -27.3 °C 30.68in /  1038.8hPa WNW 16mph /  25.7km/h 22mph /  35.4km/h 71% 0in /  0mm 60.00 W/m2
16:35 -10.4 °F /  -23.6 °C -17.5 °F /  -27.5 °C 30.68in /  1038.8hPa WNW 16mph /  25.7km/h 22mph /  35.4km/h 70% 0in /  0mm 49.00 W/m2
16:40 -10.5 °F /  -23.6 °C -17.6 °F /  -27.6 °C 30.69in /  1039.2hPa WNW 16mph /  25.7km/h 22mph /  35.4km/h 70% 0in /  0mm 40.00 W/m2
16:45 -10.5 °F /  -23.6 °C -17.6 °F /  -27.6 °C 30.69in /  1039.2hPa WNW 16mph /  25.7km/h 22mph /  35.4km/h 70% 0in /  0mm 39.00 W/m2
16:50 -10.6 °F /  -23.7 °C -17.7 °F /  -27.6 °C 30.70in /  1039.5hPa WNW 16mph /  25.7km/h 22mph /  35.4km/h 70% 0in /  0mm 28.00 W/m2
16:55 -10.7 °F /  -23.7 °C -17.8 °F /  -27.7 °C 30.70in /  1039.5hPa WNW 16mph /  25.7km/h 22mph /  35.4km/h 70% 0in /  0mm 23.00 W/m2
17:00 -10.9 °F /  -23.8 °C -18 °F /  -27.8 °C 30.70in /  1039.5hPa WNW 16mph /  25.7km/h 22mph /  35.4km/h 70% 0in /  0mm 19.00 W/m2
17:05 -11.1 °F /  -23.9 °C -17.9 °F /  -27.7 °C 30.71in /  1039.8hPa WNW 10mph /  16.1km/h 13mph /  20.9km/h 71% 0in /  0mm 16.00 W/m2
17:10 -11.2 °F /  -24 °C -18 °F /  -27.8 °C 30.71in /  1039.8hPa WNW 8mph /  12.9km/h 13mph /  20.9km/h 71% 0in /  0mm 14.00 W/m2
17:15 -11.5 °F /  -24.2 °C -18.3 °F /  -27.9 °C 30.71in /  1039.8hPa WNW 4mph /  6.4km/h 10mph /  16.1km/h 71% 0in /  0mm 11.00 W/m2
17:20 -11.8 °F /  -24.3 °C -18.6 °F /  -28.1 °C 30.71in /  1039.8hPa West 8mph /  12.9km/h 12mph /  19.3km/h 71% 0in /  0mm 9.00 W/m2
17:25 -12 °F /  -24.4 °C -18.8 °F /  -28.2 °C 30.71in /  1039.8hPa NW 5mph /  8km/h 12mph /  19.3km/h 71% 0in /  0mm 5.00 W/m2
17:30 -12.1 °F /  -24.5 °C -18.9 °F /  -28.3 °C 30.71in /  1039.8hPa NW 4mph /  6.4km/h 10mph /  16.1km/h 71% 0in /  0mm 0.00 W/m2
17:35 -12.3 °F /  -24.6 °C -19.1 °F /  -28.4 °C 30.71in /  1039.8hPa WNW 9mph /  14.5km/h 10mph /  16.1km/h 71% 0in /  0mm 0.00 W/m2
17:40 -12.4 °F /  -24.7 °C -19.1 °F /  -28.4 °C 30.72in /  1040.2hPa WNW 6mph /  9.7km/h 10mph /  16.1km/h 71% 0in /  0mm 0.00 W/m2
17:45 -12.5 °F /  -24.7 °C -19.2 °F /  -28.4 °C 30.72in /  1040.2hPa WNW 4mph /  6.4km/h 10mph /  16.1km/h 71% 0in /  0mm 0.00 W/m2
17:50 -12.7 °F /  -24.8 °C -19.4 °F /  -28.6 °C 30.72in /  1040.2hPa WNW 5mph /  8km/h 8mph /  12.9km/h 71% 0in /  0mm 0.00 W/m2
17:55 -13 °F /  -25 °C -19.5 °F /  -28.6 °C 30.73in /  1040.5hPa WNW 4mph /  6.4km/h 8mph /  12.9km/h 72% 0in /  0mm 0.00 W/m2
18:00 -13 °F /  -25 °C -19.5 °F /  -28.6 °C 30.73in /  1040.5hPa West 6mph /  9.7km/h 8mph /  12.9km/h 72% 0in /  0mm 0.00 W/m2
18:05 -13 °F /  -25 °C -19.5 °F /  -28.6 °C 30.73in /  1040.5hPa West 4mph /  6.4km/h 8mph /  12.9km/h 72% 0in /  0mm 0.00 W/m2
18:10 -13.2 °F /  -25.1 °C -19.7 °F /  -28.7 °C 30.73in /  1040.5hPa West 4mph /  6.4km/h 8mph /  12.9km/h 72% 0in /  0mm 0.00 W/m2
18:15 -13.5 °F /  -25.3 °C -19.9 °F /  -28.8 °C 30.73in /  1040.5hPa West 7mph /  11.3km/h 8mph /  12.9km/h 72% 0in /  0mm 0.00 W/m2
18:20 -13.8 °F /  -25.4 °C -20.2 °F /  -29 °C 30.74in /  1040.9hPa West 4mph /  6.4km/h 8mph /  12.9km/h 72% 0in /  0mm 0.00 W/m2
18:25 -13.8 °F /  -25.4 °C -20 °F /  -28.9 °C 30.73in /  1040.5hPa West 4mph /  6.4km/h 7mph /  11.3km/h 73% 0in /  0mm 0.00 W/m2
18:30 -13.7 °F /  -25.4 °C -19.9 °F /  -28.8 °C 30.73in /  1040.5hPa West 4mph /  6.4km/h 7mph /  11.3km/h 73% 0in /  0mm 0.00 W/m2
18:35 -13.5 °F /  -25.3 °C -19.4 °F /  -28.6 °C 30.73in /  1040.5hPa West 4mph /  6.4km/h 7mph /  11.3km/h 74% 0in /  0mm 0.00 W/m2
18:40 -13.5 °F /  -25.3 °C -19.4 °F /  -28.6 °C 30.73in /  1040.5hPa WNW 7mph /  11.3km/h 7mph /  11.3km/h 74% 0in /  0mm 0.00 W/m2
18:45 -13.5 °F /  -25.3 °C -19.4 °F /  -28.6 °C 30.74in /  1040.9hPa West 6mph /  9.7km/h 7mph /  11.3km/h 74% 0in /  0mm 0.00 W/m2
18:50 -13.5 °F /  -25.3 °C -19.4 °F /  -28.6 °C 30.74in /  1040.9hPa West 6mph /  9.7km/h 7mph /  11.3km/h 74% 0in /  0mm 0.00 W/m2
18:55 -13.3 °F /  -25.2 °C -19.2 °F /  -28.4 °C 30.74in /  1040.9hPa WNW 6mph /  9.7km/h 8mph /  12.9km/h 74% 0in /  0mm 0.00 W/m2
19:00 -13.3 °F /  -25.2 °C -19.2 °F /  -28.4 °C 30.74in /  1040.9hPa West 7mph /  11.3km/h 8mph /  12.9km/h 74% 0in /  0mm 0.00 W/m2
19:05 -13.4 °F /  -25.2 °C -19.3 °F /  -28.5 °C 30.74in /  1040.9hPa West 6mph /  9.7km/h 8mph /  12.9km/h 74% 0in /  0mm 0.00 W/m2
19:10 -13.8 °F /  -25.4 °C -19.7 °F /  -28.7 °C 30.74in /  1040.9hPa West 4mph /  6.4km/h 8mph /  12.9km/h 74% 0in /  0mm 0.00 W/m2
19:15 -14 °F /  -25.6 °C -19.6 °F /  -28.7 °C 30.74in /  1040.9hPa West 6mph /  9.7km/h 8mph /  12.9km/h 75% 0in /  0mm 0.00 W/m2
19:20 -13.9 °F /  -25.5 °C -19.5 °F /  -28.6 °C 30.74in /  1040.9hPa West 6mph /  9.7km/h 8mph /  12.9km/h 75% 0in /  0mm 0.00 W/m2
19:25 -14.2 °F /  -25.7 °C -20.1 °F /  -28.9 °C 30.74in /  1040.9hPa West 3mph /  4.8km/h 8mph /  12.9km/h 74% 0in /  0mm 0.00 W/m2
19:30 -14.6 °F /  -25.9 °C -20.2 °F /  -29 °C 30.74in /  1040.9hPa WSW 4mph /  6.4km/h 7mph /  11.3km/h 75% 0in /  0mm 0.00 W/m2
19:35 -15 °F /  -26.1 °C -20.6 °F /  -29.2 °C 30.74in /  1040.9hPa WSW 3mph /  4.8km/h 7mph /  11.3km/h 75% 0in /  0mm 0.00 W/m2
19:40 -15.1 °F /  -26.2 °C -20.7 °F /  -29.3 °C 30.74in /  1040.9hPa West 2mph /  3.2km/h 7mph /  11.3km/h 75% 0in /  0mm 0.00 W/m2
19:45 -15.2 °F /  -26.2 °C -20.6 °F /  -29.2 °C 30.74in /  1040.9hPa West 2mph /  3.2km/h 6mph /  9.7km/h 76% 0in /  0mm 0.00 W/m2
19:50 -15.1 °F /  -26.2 °C -20.5 °F /  -29.2 °C 30.74in /  1040.9hPa WNW 4mph /  6.4km/h 6mph /  9.7km/h 76% 0in /  0mm 0.00 W/m2
19:55 -14.8 °F /  -26 °C -20.4 °F /  -29.1 °C 30.74in /  1040.9hPa WNW 4mph /  6.4km/h 6mph /  9.7km/h 75% 0in /  0mm 0.00 W/m2
20:00 -14.7 °F /  -25.9 °C -20.3 °F /  -29.1 °C 30.75in /  1041.2hPa WNW 3mph /  4.8km/h 6mph /  9.7km/h 75% 0in /  0mm 0.00 W/m2
20:05 -14.5 °F /  -25.8 °C -20.1 °F /  -28.9 °C 30.75in /  1041.2hPa WNW 3mph /  4.8km/h 6mph /  9.7km/h 75% 0in /  0mm 0.00 W/m2
20:10 -14.5 °F /  -25.8 °C -20.4 °F /  -29.1 °C 30.75in /  1041.2hPa WNW 3mph /  4.8km/h 5mph /  8km/h 74% 0in /  0mm 0.00 W/m2
20:15 -14.6 °F /  -25.9 °C -20.5 °F /  -29.2 °C 30.75in /  1041.2hPa WNW 3mph /  4.8km/h 5mph /  8km/h 74% 0in /  0mm 0.00 W/m2
20:20 -14.9 °F /  -26.1 °C -20.8 °F /  -29.3 °C 30.75in /  1041.2hPa West 3mph /  4.8km/h 5mph /  8km/h 74% 0in /  0mm 0.00 W/m2
20:25 -15.1 °F /  -26.2 °C -21 °F /  -29.4 °C 30.75in /  1041.2hPa WSW 3mph /  4.8km/h 6mph /  9.7km/h 74% 0in /  0mm 0.00 W/m2
20:30 -15.4 °F /  -26.3 °C -21 °F /  -29.4 °C 30.75in /  1041.2hPa WSW 3mph /  4.8km/h 6mph /  9.7km/h 75% 0in /  0mm 0.00 W/m2
20:35 -15.5 °F /  -26.4 °C -21.1 °F /  -29.5 °C 30.75in /  1041.2hPa West 3mph /  4.8km/h 6mph /  9.7km/h 75% 0in /  0mm 0.00 W/m2
20:40 -15.5 °F /  -26.4 °C -21.1 °F /  -29.5 °C 30.75in /  1041.2hPa West 3mph /  4.8km/h 6mph /  9.7km/h 75% 0in /  0mm 0.00 W/m2
20:45 -15.6 °F /  -26.4 °C -21.2 °F /  -29.6 °C 30.76in /  1041.5hPa West 4mph /  6.4km/h 6mph /  9.7km/h 75% 0in /  0mm 0.00 W/m2
20:50 -15.7 °F /  -26.5 °C -21.3 °F /  -29.6 °C 30.76in /  1041.5hPa West 3mph /  4.8km/h 6mph /  9.7km/h 75% 0in /  0mm 0.00 W/m2
20:55 -15.6 °F /  -26.4 °C -21.2 °F /  -29.6 °C 30.76in /  1041.5hPa West 2mph /  3.2km/h 6mph /  9.7km/h 75% 0in /  0mm 0.00 W/m2
21:00 -15.5 °F /  -26.4 °C -21.1 °F /  -29.5 °C 30.76in /  1041.5hPa West 2mph /  3.2km/h 6mph /  9.7km/h 75% 0in /  0mm 0.00 W/m2
21:05 -15.6 °F /  -26.4 °C -21.2 °F /  -29.6 °C 30.77in /  1041.9hPa West 3mph /  4.8km/h 6mph /  9.7km/h 75% 0in /  0mm 0.00 W/m2
21:10 -15.7 °F /  -26.5 °C -21.3 °F /  -29.6 °C 30.77in /  1041.9hPa West 3mph /  4.8km/h 4mph /  6.4km/h 75% 0in /  0mm 0.00 W/m2
21:15 -15.8 °F /  -26.6 °C -21.4 °F /  -29.7 °C 30.77in /  1041.9hPa West 3mph /  4.8km/h 4mph /  6.4km/h 75% 0in /  0mm 0.00 W/m2
21:20 -15.7 °F /  -26.5 °C -21.3 °F /  -29.6 °C 30.77in /  1041.9hPa WNW 3mph /  4.8km/h 5mph /  8km/h 75% 0in /  0mm 0.00 W/m2
21:25 -15.7 °F /  -26.5 °C -21.3 °F /  -29.6 °C 30.77in /  1041.9hPa WNW 2mph /  3.2km/h 5mph /  8km/h 75% 0in /  0mm 0.00 W/m2
21:30 -15.8 °F /  -26.6 °C -21.4 °F /  -29.7 °C 30.77in /  1041.9hPa WNW 1mph /  1.6km/h 4mph /  6.4km/h 75% 0in /  0mm 0.00 W/m2
21:35 -16 °F /  -26.7 °C -21.6 °F /  -29.8 °C 30.78in /  1042.2hPa West 3mph /  4.8km/h 4mph /  6.4km/h 75% 0in /  0mm 0.00 W/m2
21:40 -16.3 °F /  -26.8 °C -21.9 °F /  -29.9 °C 30.78in /  1042.2hPa West 3mph /  4.8km/h 4mph /  6.4km/h 75% 0in /  0mm 0.00 W/m2
21:45 -16.4 °F /  -26.9 °C -21.7 °F /  -29.8 °C 30.78in /  1042.2hPa West 3mph /  4.8km/h 4mph /  6.4km/h 76% 0in /  0mm 0.00 W/m2
21:50 -16.3 °F /  -26.8 °C -21.6 °F /  -29.8 °C 30.78in /  1042.2hPa West 3mph /  4.8km/h 4mph /  6.4km/h 76% 0in /  0mm 0.00 W/m2
21:55 -16.4 °F /  -26.9 °C -21.7 °F /  -29.8 °C 30.78in /  1042.2hPa West 3mph /  4.8km/h 4mph /  6.4km/h 76% 0in /  0mm 0.00 W/m2
22:00 -16.3 °F /  -26.8 °C -21.6 °F /  -29.8 °C 30.78in /  1042.2hPa West 2mph /  3.2km/h 4mph /  6.4km/h 76% 0in /  0mm 0.00 W/m2
22:05 -16.5 °F /  -26.9 °C -21.8 °F /  -29.9 °C 30.78in /  1042.2hPa Calm   3mph /  4.8km/h 76% 0in /  0mm 0.00 W/m2
22:10 -16.5 °F /  -26.9 °C -21.8 °F /  -29.9 °C 30.78in /  1042.2hPa Calm   3mph /  4.8km/h 76% 0in /  0mm 0.00 W/m2
22:15 -16.7 °F /  -27.1 °C -22 °F /  -30 °C 30.78in /  1042.2hPa Calm   3mph /  4.8km/h 76% 0in /  0mm 0.00 W/m2
22:20 -16.9 °F /  -27.2 °C -22.2 °F /  -30.1 °C 30.78in /  1042.2hPa Calm   3mph /  4.8km/h 76% 0in /  0mm 0.00 W/m2
22:25 -16.8 °F /  -27.1 °C -21.9 °F /  -29.9 °C 30.79in /  1042.5hPa Calm     77% 0in /  0mm 0.00 W/m2
22:30 -16.7 °F /  -27.1 °C -21.8 °F /  -29.9 °C 30.79in /  1042.5hPa Calm     77% 0in /  0mm 0.00 W/m2
22:35 -16.7 °F /  -27.1 °C -21.8 °F /  -29.9 °C 30.79in /  1042.5hPa West 1mph /  1.6km/h 2mph /  3.2km/h 77% 0in /  0mm 0.00 W/m2
22:40 -16.3 °F /  -26.8 °C -21.1 °F /  -29.5 °C 30.79in /  1042.5hPa Calm   2mph /  3.2km/h 78% 0in /  0mm 0.00 W/m2
22:45 -16.2 °F /  -26.8 °C -21.3 °F /  -29.6 °C 30.79in /  1042.5hPa Calm   2mph /  3.2km/h 77% 0in /  0mm 0.00 W/m2
22:50 -15.9 °F /  -26.6 °C -21 °F /  -29.4 °C 30.78in /  1042.2hPa Calm   2mph /  3.2km/h 77% 0in /  0mm 0.00 W/m2
22:55 -15.8 °F /  -26.6 °C -20.9 °F /  -29.4 °C 30.79in /  1042.5hPa Calm   2mph /  3.2km/h 77% 0in /  0mm 0.00 W/m2
23:00 -15.8 °F /  -26.6 °C -20.9 °F /  -29.4 °C 30.79in /  1042.5hPa Calm     77% 0in /  0mm 0.00 W/m2
23:05 -15.7 °F /  -26.5 °C -20.8 °F /  -29.3 °C 30.79in /  1042.5hPa Calm   1mph /  1.6km/h 77% 0in /  0mm 0.00 W/m2
23:10 -15.5 °F /  -26.4 °C -20.3 °F /  -29.1 °C 30.79in /  1042.5hPa Calm   2mph /  3.2km/h 78% 0in /  0mm 0.00 W/m2
23:15 -15.4 °F /  -26.3 °C -20.5 °F /  -29.2 °C 30.79in /  1042.5hPa Calm   2mph /  3.2km/h 77% 0in /  0mm 0.00 W/m2
23:20 -15.4 °F /  -26.3 °C -20.5 °F /  -29.2 °C 30.80in /  1042.9hPa Calm   2mph /  3.2km/h 77% 0in /  0mm 0.00 W/m2
23:25 -15.5 °F /  -26.4 °C -20.6 °F /  -29.2 °C 30.80in /  1042.9hPa West 1mph /  1.6km/h 2mph /  3.2km/h 77% 0in /  0mm 0.00 W/m2
23:30 -15.7 °F /  -26.5 °C -21 °F /  -29.4 °C 30.81in /  1043.2hPa West 1mph /  1.6km/h 2mph /  3.2km/h 76% 0in /  0mm 0.00 W/m2
23:35 -15.9 °F /  -26.6 °C -21.2 °F /  -29.6 °C 30.81in /  1043.2hPa West 1mph /  1.6km/h 3mph /  4.8km/h 76% 0in /  0mm 0.00 W/m2
23:40 -16.1 °F /  -26.7 °C -21.2 °F /  -29.6 °C 30.81in /  1043.2hPa West 2mph /  3.2km/h 3mph /  4.8km/h 77% 0in /  0mm 0.00 W/m2
23:45 -16.3 °F /  -26.8 °C -21.4 °F /  -29.7 °C 30.81in /  1043.2hPa West 1mph /  1.6km/h 2mph /  3.2km/h 77% 0in /  0mm 0.00 W/m2
23:50 -16.4 °F /  -26.9 °C -21.5 °F /  -29.7 °C 30.81in /  1043.2hPa Calm   2mph /  3.2km/h 77% 0in /  0mm 0.00 W/m2
23:55 -16.5 °F /  -26.9 °C -21.6 °F /  -29.8 °C 30.81in /  1043.2hPa West 1mph /  1.6km/h 2mph /  3.2km/h 77% 0in /  0mm 0.00 W/m2
Bismarck, North Dakota, USA
Compliments of Weather Underground - 4 mb